Time;durP1;ratioP1;P1;durP2;ratioP2;P2;SDS_P1;SDS_P2;PMS_P1;PMS_P2;Temp;Humidity;BMP_temperature;BMP_pressure;BME280_temperature;BME280_humidity;BME280_pressure;Samples;Min_cycle;Max_cycle;Signal;HPM_P1;HPM_P2
2022/02/04 00:04:20;;;;;;;21.90;17.20;;;;;;;10.78;71.97;100531.31;5060586;28;20435;-61
2022/02/04 00:22:41;;;;;;;27.37;19.57;;;;;;;8.20;79.28;100522.41;5060259;28;20389;-67
2022/02/04 00:27:54;;;;;;;28.63;19.90;;;;;;;8.14;79.90;100524.94;5060269;28;20502;-67
2022/02/04 00:30:25;;;;;;;29.10;20.07;;;;;;;8.27;79.98;100526.88;5060346;28;20904;-68
2022/02/04 00:32:53;;;;;;;30.47;20.93;;;;;;;8.32;79.77;100527.84;5060686;28;21817;-68
2022/02/04 00:40:16;;;;;;;30.40;21.13;;;;;;;8.50;78.85;100518.59;5059971;28;20249;-65
2022/02/04 00:42:41;;;;;;;33.10;22.10;;;;;;;8.30;79.16;100519.13;5060090;28;20173;-66
2022/02/04 00:45:21;;;;;;;31.80;22.77;;;;;;;8.24;79.68;100529.41;5062184;28;20890;-65
2022/02/04 00:47:53;;;;;;;32.70;22.77;;;;;;;8.41;79.29;100516.69;5061024;28;20173;-67
2022/02/04 00:50:31;;;;;;;32.37;23.13;;;;;;;8.33;80.15;100513.97;5059912;28;20391;-64
2022/02/04 00:55:38;;;;;;;33.30;23.13;;;;;;;8.07;80.78;100516.19;5059940;28;20452;-66
2022/02/04 01:27:32;;;;;;;35.43;24.10;;;;;;;7.96;82.45;100528.13;5059055;28;20832;-68
2022/02/04 01:32:22;;;;;;;37.90;24.13;;;;;;;7.81;82.84;100524.41;5058952;28;20216;-67
2022/02/04 01:34:48;;;;;;;35.50;24.53;;;;;;;8.11;82.07;100524.91;5063516;28;20651;-67
2022/02/04 01:37:13;;;;;;;40.20;26.93;;;;;;;7.95;82.59;100523.75;5061589;28;20208;-68
2022/02/04 01:39:38;;;;;;;43.47;25.37;;;;;;;8.02;82.18;100521.28;5061426;28;20496;-68
2022/02/04 01:42:04;;;;;;;40.17;26.90;;;;;;;7.90;82.34;100518.47;5078777;28;20316;-68
2022/02/04 01:44:30;;;;;;;39.67;26.40;;;;;;;8.15;81.36;100522.38;5078717;28;20188;-68
2022/02/04 01:46:55;;;;;;;41.47;27.53;;;;;;;8.03;82.14;100515.25;5079213;28;20180;-68
2022/02/04 01:49:27;;;;;;;37.67;24.53;;;;;;;8.22;81.35;100515.53;5078186;28;20215;-68
2022/02/04 01:51:53;;;;;;;43.00;27.30;;;;;;;8.06;81.75;100517.00;5078575;28;20201;-67
2022/02/04 01:54:18;;;;;;;42.60;28.10;;;;;;;7.96;81.81;100513.41;5079033;28;20670;-69
2022/02/04 01:56:43;;;;;;;42.60;25.73;;;;;;;7.93;82.93;100514.22;5071696;28;20200;-68
2022/02/04 01:59:09;;;;;;;42.87;27.90;;;;;;;8.12;81.67;100511.03;5058613;28;20181;-67
2022/02/04 02:01:34;;;;;;;38.70;25.43;;;;;;;8.08;82.04;100513.59;5059103;28;20201;-68
2022/02/04 02:04:01;;;;;;;46.00;28.20;;;;;;;7.97;81.41;100511.66;5058219;28;20264;-69
2022/02/04 02:06:50;;;;;;;42.37;26.60;;;;;;;8.03;82.33;100509.19;5058346;28;20594;-69
2022/02/04 02:09:17;;;;;;;42.83;28.10;;;;;;;7.89;82.67;100514.16;5058234;28;20654;-69
2022/02/04 02:11:43;;;;;;;39.50;26.00;;;;;;;8.06;81.95;100512.72;5058532;28;20459;-68
2022/02/04 02:14:12;;;;;;;43.50;26.80;;;;;;;8.06;81.70;100501.44;5058279;28;20485;-72
2022/02/04 02:35:55;;;;;;;41.00;26.70;;;;;;;8.31;81.13;100494.91;5057863;28;20449;-66
2022/02/04 02:39:12;;;;;;;42.53;27.60;;;;;;;8.43;80.80;100491.63;5045234;28;20383;-68
2022/02/04 02:42:00;;;;;;;43.67;27.00;;;;;;;8.06;82.49;100489.34;5043452;28;20688;-68
2022/02/04 02:44:07;;;;;;;47.47;28.07;;;;;;;7.91;82.23;100489.09;5057781;28;20710;-67
2022/02/04 02:49:31;;;;;;;44.77;29.00;;;;;;;8.01;82.07;100491.00;5058984;28;20495;-69
2022/02/04 02:59:30;;;;;;;47.87;31.87;;;;;;;7.84;82.22;100488.09;5057707;28;20424;-68
2022/02/04 03:01:55;;;;;;;47.83;29.20;;;;;;;8.22;81.01;100480.03;5060227;28;20383;-67
2022/02/04 03:04:20;;;;;;;45.30;30.20;;;;;;;8.28;80.69;100471.50;5061769;28;20873;-70
2022/02/04 03:06:48;;;;;;;48.33;29.80;;;;;;;8.22;81.90;100468.81;5062046;28;20189;-67
2022/02/04 03:09:14;;;;;;;44.43;29.90;;;;;;;8.14;81.45;100473.00;5061726;28;20173;-68
2022/02/04 03:11:40;;;;;;;44.77;28.77;;;;;;;8.27;81.31;100459.34;5061587;28;20720;-68
2022/02/04 03:14:05;;;;;;;44.97;29.33;;;;;;;8.13;81.65;100461.72;5061743;28;20404;-66
2022/02/04 03:16:31;;;;;;;46.63;29.27;;;;;;;7.96;82.13;100458.03;5061662;28;20562;-66
2022/02/04 03:18:58;;;;;;;42.80;29.70;;;;;;;7.98;81.77;100464.97;5061615;28;20258;-68
2022/02/04 03:21:35;;;;;;;45.57;28.67;;;;;;;7.91;82.20;100470.91;5044870;28;20404;-67
2022/02/04 03:24:07;;;;;;;43.27;28.23;;;;;;;7.94;82.13;100463.16;5061509;28;20464;-66
2022/02/04 03:26:42;;;;;;;42.20;28.63;;;;;;;8.23;80.76;100458.44;5061605;28;20416;-67
2022/02/04 03:29:07;;;;;;;42.90;28.00;;;;;;;8.10;81.01;100448.72;5061340;28;20419;-66
2022/02/04 03:31:39;;;;;;;49.30;30.93;;;;;;;8.19;81.48;100454.03;5044012;28;20471;-68
2022/02/04 03:34:05;;;;;;;43.77;29.10;;;;;;;8.28;80.21;100461.13;5061122;28;20170;-68
2022/02/04 03:36:31;;;;;;;50.33;30.50;;;;;;;8.11;80.77;100460.00;5043547;28;20530;-67
2022/02/04 03:38:56;;;;;;;47.87;30.93;;;;;;;8.36;80.27;100450.81;5061722;28;20180;-67
2022/02/04 03:41:21;;;;;;;44.90;30.10;;;;;;;8.07;81.05;100444.34;5061191;28;20253;-68
2022/02/04 03:43:47;;;;;;;46.13;30.83;;;;;;;8.30;80.93;100455.94;5061715;28;20418;-68
2022/02/04 03:46:12;;;;;;;44.47;29.80;;;;;;;8.30;79.93;100443.81;5061457;28;20166;-68
2022/02/04 03:48:37;;;;;;;46.37;29.60;;;;;;;8.61;79.39;100446.00;5060940;28;20223;-68
2022/02/04 03:51:03;;;;;;;40.93;28.67;;;;;;;8.20;80.91;100447.13;5060872;28;20206;-65
2022/02/04 03:53:28;;;;;;;45.27;30.17;;;;;;;8.05;80.96;100445.16;5061185;28;20176;-67
2022/02/04 03:55:53;;;;;;;45.27;29.83;;;;;;;8.26;80.40;100431.63;5060855;28;20180;-66
2022/02/04 03:58:19;;;;;;;47.40;29.83;;;;;;;8.19;79.94;100429.81;5060756;28;20178;-67
2022/02/04 04:00:44;;;;;;;39.67;28.13;;;;;;;8.55;79.52;100428.56;5061204;28;20173;-66
2022/02/04 04:03:09;;;;;;;42.70;28.30;;;;;;;8.47;79.80;100428.50;5060922;28;20490;-68
2022/02/04 04:05:38;;;;;;;46.13;30.07;;;;;;;8.43;79.09;100432.75;5060999;28;20227;-67
2022/02/04 04:08:04;;;;;;;45.83;30.10;;;;;;;8.09;80.72;100437.47;5061111;28;20177;-68
2022/02/04 04:10:37;;;;;;;43.97;29.20;;;;;;;8.01;80.69;100427.78;5060567;28;20808;-67
2022/02/04 04:13:03;;;;;;;50.70;30.60;;;;;;;8.29;79.84;100431.66;5042560;28;20204;-68
2022/02/04 04:15:28;;;;;;;45.47;29.20;;;;;;;8.18;80.40;100430.66;5043512;28;20440;-68
2022/02/04 04:17:53;;;;;;;47.37;30.20;;;;;;;8.00;80.73;100421.75;5043150;28;20613;-68
2022/02/04 04:20:22;;;;;;;45.93;28.90;;;;;;;8.13;80.74;100427.13;5043156;28;20204;-65
2022/02/04 04:22:48;;;;;;;42.53;28.77;;;;;;;8.60;78.03;100434.72;5043139;28;20165;-63
2022/02/04 04:25:14;;;;;;;47.27;27.83;;;;;;;8.04;79.84;100425.28;5060014;28;20805;-63
2022/02/04 04:27:42;;;;;;;41.27;29.07;;;;;;;8.29;78.78;100429.06;5060461;28;20189;-63
2022/02/04 04:30:09;;;;;;;45.87;29.37;;;;;;;8.31;79.40;100427.38;5060833;28;20385;-63
2022/02/04 04:32:34;;;;;;;42.27;28.40;;;;;;;8.06;80.29;100420.97;5060098;28;20873;-64
2022/02/04 04:34:59;;;;;;;42.50;29.20;;;;;;;8.26;79.07;100418.66;5059884;28;20460;-63
2022/02/04 04:37:25;;;;;;;39.57;27.53;;;;;;;8.02;79.86;100411.38;5060625;28;20170;-63
2022/02/04 04:40:10;;;;;;;44.77;28.60;;;;;;;8.37;79.08;100422.25;5060139;28;20174;-63
2022/02/04 04:43:10;;;;;;;43.53;29.60;;;;;;;8.31;78.58;100409.19;5060051;28;20218;-64
2022/02/04 05:28:55;;;;;;;30.50;21.60;;;;;;;8.29;77.12;100371.94;5059361;28;20387;-63
2022/02/04 05:31:20;;;;;;;33.13;22.63;;;;;;;8.40;76.53;100370.38;5059108;28;20328;-63
2022/02/04 05:33:46;;;;;;;29.60;21.50;;;;;;;8.39;77.14;100365.16;5058964;28;20503;-63
2022/02/04 05:36:11;;;;;;;34.30;21.70;;;;;;;8.26;76.99;100362.38;5058873;28;20300;-63
2022/02/04 05:38:39;;;;;;;29.23;21.90;;;;;;;8.51;76.08;100362.75;5059535;28;20170;-63
2022/02/04 05:41:07;;;;;;;29.97;21.90;;;;;;;8.26;76.73;100371.91;5058882;28;20189;-63
2022/02/04 05:43:35;;;;;;;34.60;22.27;;;;;;;8.28;76.59;100359.81;5058936;28;20805;-63
2022/02/04 05:46:10;;;;;;;29.77;22.00;;;;;;;8.48;76.12;100352.28;5042409;28;20652;-63
2022/02/04 05:48:38;;;;;;;30.40;20.97;;;;;;;8.60;75.99;100359.34;5058784;28;20419;-63
2022/02/04 05:51:25;;;;;;;30.83;21.33;;;;;;;8.31;76.42;100356.38;5058586;28;20829;-64
2022/02/04 05:54:02;;;;;;;30.23;22.50;;;;;;;8.47;76.28;100345.38;5058749;28;20420;-63
2022/02/04 05:56:47;;;;;;;29.40;21.40;;;;;;;8.68;75.74;100338.66;5058771;28;20382;-63
2022/02/04 06:02:10;;;;;;;30.03;21.40;;;;;;;8.49;75.67;100335.84;5058577;28;20444;-63
2022/02/04 06:04:44;;;;;;;31.03;21.10;;;;;;;8.77;73.93;100326.63;5058439;28;20415;-64
2022/02/04 06:07:24;;;;;;;27.20;20.63;;;;;;;8.50;75.38;100328.94;5058654;28;20458;-63
2022/02/04 06:23:24;;;;;;;26.70;20.20;;;;;;;8.48;75.83;100313.31;5058142;28;20453;-63
2022/02/04 06:25:49;;;;;;;28.73;21.47;;;;;;;8.46;75.34;100315.03;5058023;28;20387;-63
2022/02/04 06:28:18;;;;;;;30.70;21.20;;;;;;;8.37;75.66;100315.75;5058150;28;20169;-64
2022/02/04 06:30:45;;;;;;;30.13;20.87;;;;;;;8.60;75.20;100320.38;5058536;28;20169;-64
2022/02/04 06:33:10;;;;;;;30.40;21.37;;;;;;;8.29;75.88;100312.19;5057819;28;20667;-64
2022/02/04 06:35:36;;;;;;;31.63;22.60;;;;;;;8.70;74.81;100305.75;5057706;28;20438;-64
2022/02/04 06:38:02;;;;;;;28.30;21.73;;;;;;;8.14;76.70;100310.28;5041300;28;20177;-64
2022/02/04 06:40:28;;;;;;;29.77;21.27;;;;;;;8.15;76.74;100321.56;5058144;28;20248;-63
2022/02/04 06:42:55;;;;;;;28.80;20.30;;;;;;;8.51;76.59;100315.09;5057904;28;20450;-63
2022/02/04 06:45:23;;;;;;;30.23;22.60;;;;;;;8.32;76.36;100308.78;5058446;28;20425;-64
2022/02/04 06:47:49;;;;;;;27.90;21.77;;;;;;;8.08;77.41;100326.66;5057805;28;20414;-63
2022/02/04 06:50:15;;;;;;;31.20;22.50;;;;;;;8.14;77.74;100319.81;5057833;28;20686;-63
2022/02/04 06:52:42;;;;;;;29.13;21.63;;;;;;;8.50;77.02;100318.56;5041024;28;20194;-63
2022/02/04 06:55:07;;;;;;;31.63;22.13;;;;;;;8.29;77.07;100309.59;5057769;28;20462;-64
2022/02/04 06:57:33;;;;;;;31.53;22.23;;;;;;;8.46;76.54;100298.56;5058913;28;20424;-63
2022/02/04 06:59:58;;;;;;;29.10;20.77;;;;;;;8.21;77.34;100308.66;5058821;28;20178;-63
2022/02/04 07:02:26;;;;;;;33.07;21.70;;;;;;;8.42;76.63;100318.44;5057705;28;20568;-64
2022/02/04 07:04:52;;;;;;;30.60;23.60;;;;;;;8.41;77.57;100314.94;5040637;28;20166;-64
2022/02/04 07:07:18;;;;;;;31.00;23.43;;;;;;;8.26;77.57;100314.78;5058110;28;20374;-64
2022/02/04 07:09:54;;;;;;;30.30;21.20;;;;;;;8.57;76.60;100325.56;5057991;28;20579;-64
2022/02/04 07:12:34;;;;;;;31.10;21.50;;;;;;;8.68;75.65;100313.53;5057498;28;20434;-63
2022/02/04 07:20:17;;;;;;;29.43;21.97;;;;;;;8.81;75.96;100308.47;5040797;28;20416;-63
2022/02/04 07:22:42;;;;;;;33.33;22.67;;;;;;;8.54;76.50;100299.56;5040307;28;20391;-63
2022/02/04 07:25:08;;;;;;;31.90;22.67;;;;;;;8.70;75.67;100311.84;5057330;28;20177;-63
2022/02/04 07:27:36;;;;;;;32.87;23.97;;;;;;;8.31;76.07;100309.63;5057386;28;20231;-64
2022/02/04 07:30:03;;;;;;;32.23;22.77;;;;;;;8.40;76.06;100313.22;5057880;28;20186;-64
2022/02/04 07:32:37;;;;;;;31.97;25.77;;;;;;;8.71;75.60;100308.41;5057466;28;20485;-63
2022/02/04 07:43:18;;;;;;;33.27;23.10;;;;;;;8.50;77.49;100295.19;5057403;28;20390;-63
2022/02/04 07:45:43;;;;;;;29.73;22.23;;;;;;;8.68;76.17;100290.16;5057309;28;20420;-63
2022/02/04 07:48:09;;;;;;;31.37;23.80;;;;;;;8.56;76.44;100283.09;5059861;28;20189;-63
2022/02/04 07:50:34;;;;;;;33.77;24.40;;;;;;;8.51;76.72;100283.91;5060873;28;20511;-63
2022/02/04 07:52:59;;;;;;;32.33;23.17;;;;;;;8.65;76.76;100271.94;5061350;28;20426;-63
2022/02/04 07:55:25;;;;;;;31.87;22.70;;;;;;;8.14;77.25;100283.47;5060878;28;20450;-63
2022/02/04 07:57:51;;;;;;;35.03;24.33;;;;;;;8.31;77.27;100281.06;5060747;28;20177;-63
2022/02/04 08:00:17;;;;;;;33.93;24.90;;;;;;;8.47;77.34;100276.94;5061320;28;20669;-63
2022/02/04 08:02:45;;;;;;;30.30;22.60;;;;;;;8.64;76.41;100270.19;5060848;28;20232;-63
2022/02/04 08:05:17;;;;;;;33.37;22.37;;;;;;;8.80;76.13;100265.16;5060557;28;20685;-63
2022/02/04 08:07:58;;;;;;;29.10;22.90;;;;;;;8.54;76.82;100260.59;5060861;28;20444;-64
2022/02/04 08:10:37;;;;;;;30.63;21.80;;;;;;;8.46;78.56;100264.78;5060451;28;20439;-63
2022/02/04 08:21:32;;;;;;;30.57;24.13;;;;;;;8.93;75.32;100262.66;5060764;28;20735;-63
2022/02/04 08:24:31;;;;;;;31.17;22.97;;;;;;;8.95;76.02;100256.63;5060173;28;20430;-65
2022/02/04 08:27:48;;;;;;;29.97;24.40;;;;;;;9.00;74.55;100257.50;5060853;28;20629;-63
2022/02/04 08:32:51;;;;;;;29.80;21.80;;;;;;;8.95;75.71;100249.69;5063014;28;20521;-63
2022/02/04 08:35:31;;;;;;;28.73;23.13;;;;;;;8.87;75.56;100246.16;5057290;28;20221;-64
2022/02/04 08:49:01;;;;;;;28.83;21.73;;;;;;;8.71;75.12;100240.81;5059927;28;20467;-63
2022/02/04 08:51:40;;;;;;;26.40;21.10;;;;;;;8.68;76.52;100248.56;5060015;28;20566;-63
2022/02/04 08:56:44;;;;;;;27.50;22.23;;;;;;;8.76;76.09;100249.50;5060020;28;20866;-64
2022/02/04 08:59:19;;;;;;;29.37;23.37;;;;;;;9.49;73.62;100238.81;5059079;28;20442;-63
2022/02/04 09:01:52;;;;;;;32.07;23.00;;;;;;;9.20;74.66;100236.84;5059820;28;20379;-65
2022/02/04 09:04:19;;;;;;;31.07;23.83;;;;;;;8.99;75.10;100230.66;5059889;28;20412;-67
2022/02/04 09:06:51;;;;;;;31.63;21.17;;;;;;;9.41;74.66;100229.19;5039557;28;20428;-70
2022/02/04 09:09:42;;;;;;;26.93;21.40;;;;;;;9.30;74.62;100230.00;5059314;28;20412;-70
2022/02/04 09:12:11;;;;;;;29.23;22.73;;;;;;;9.22;74.11;100222.16;5044762;28;20549;-68
2022/02/04 09:17:43;;;;;;;28.00;21.90;;;;;;;9.50;73.58;100225.78;5059555;28;20469;-65
2022/02/04 09:20:25;;;;;;;27.03;20.83;;;;;;;9.24;74.39;100228.22;5059278;28;20497;-65
2022/02/04 09:22:51;;;;;;;25.23;20.40;;;;;;;9.35;74.14;100221.38;5059350;28;20424;-66
2022/02/04 09:25:16;;;;;;;26.47;20.20;;;;;;;9.43;73.54;100224.88;5041857;28;20545;-65
2022/02/04 09:27:42;;;;;;;26.27;21.97;;;;;;;9.42;73.22;100227.50;5059311;28;20408;-65
2022/02/04 09:30:10;;;;;;;27.50;20.70;;;;;;;9.49;74.01;100226.66;5059005;28;20170;-63
2022/02/04 09:32:36;;;;;;;23.30;20.10;;;;;;;9.57;73.55;100211.09;5059229;28;20201;-64
2022/02/04 09:35:03;;;;;;;28.10;21.90;;;;;;;9.41;73.71;100207.53;5065365;28;20444;-64
2022/02/04 09:37:30;;;;;;;22.63;19.27;;;;;;;9.18;74.34;100204.78;5061582;28;20477;-63
2022/02/04 09:39:55;;;;;;;24.77;20.73;;;;;;;9.29;74.12;100205.72;5067471;28;20410;-63
2022/02/04 09:42:20;;;;;;;25.70;20.53;;;;;;;9.20;75.07;100197.84;5058892;28;20416;-64
2022/02/04 09:44:45;;;;;;;26.47;20.83;;;;;;;9.36;72.99;100204.91;5058505;28;20196;-64
2022/02/04 09:47:18;;;;;;;23.70;19.90;;;;;;;9.15;73.96;100200.44;5059354;28;20178;-64
2022/02/04 09:49:47;;;;;;;22.33;19.07;;;;;;;9.08;74.59;100196.06;5058794;28;20201;-64
2022/02/04 10:09:30;;;;;;;22.80;20.10;;;;;;;9.70;72.45;100167.75;5042498;28;20489;-69
2022/02/04 10:17:15;;;;;;;26.30;19.27;;;;;;;9.39;72.89;100145.09;5078205;28;20713;-67
2022/02/04 10:22:12;;;;;;;23.83;19.10;;;;;;;9.39;72.60;100147.69;5078152;28;20393;-68
2022/02/04 10:24:37;;;;;;;22.10;19.57;;;;;;;9.50;72.61;100144.25;5060691;28;20489;-67
2022/02/04 10:27:21;;;;;;;24.03;19.27;;;;;;;9.80;71.47;100134.84;5078348;28;20465;-68
2022/02/04 10:30:13;;;;;;;21.07;18.20;;;;;;;9.74;71.47;100127.84;5078187;28;20173;-68
2022/02/04 10:32:44;;;;;;;23.83;20.47;;;;;;;9.55;71.71;100127.81;5074536;28;20566;-71
2022/02/04 10:35:14;;;;;;;24.03;18.70;;;;;;;9.92;70.47;100119.25;5077729;28;20444;-68
2022/02/04 10:37:43;;;;;;;20.87;18.50;;;;;;;9.57;71.52;100120.00;5078097;28;20421;-68
2022/02/04 10:40:30;;;;;;;23.67;18.00;;;;;;;9.85;70.83;100104.47;5077930;28;20703;-77
2022/02/04 10:43:05;;;;;;;20.77;18.57;;;;;;;9.62;71.20;100118.31;5060323;28;20476;-66
2022/02/04 10:45:46;;;;;;;20.90;17.73;;;;;;;9.76;70.95;100111.38;5078003;28;20389;-68
2022/02/04 10:51:33;;;;;;;20.50;16.43;;;;;;;9.56;71.42;100094.84;5078114;28;20791;-68
2022/02/04 10:59:28;;;;;;;19.77;16.10;;;;;;;9.26;71.53;100071.31;5060817;28;20470;-69
2022/02/04 11:04:27;;;;;;;19.70;17.60;;;;;;;9.88;70.17;100062.84;5078173;28;20394;-67
2022/02/04 11:07:12;;;;;;;23.03;17.83;;;;;;;10.14;69.08;100059.38;5077731;28;20168;-66
2022/02/04 11:31:49;;;;;;;15.77;14.10;;;;;;;9.90;68.97;100030.72;5046713;28;20495;-69
2022/02/04 11:51:43;;;;;;;13.97;12.67;;;;;;;11.07;64.90;99969.72;5060922;28;20425;-69
2022/02/04 11:56:55;;;;;;;14.83;13.20;;;;;;;10.88;64.88;99963.72;5060910;28;20386;-69
2022/02/04 11:59:39;;;;;;;14.60;13.03;;;;;;;10.60;64.89;99961.19;5060976;28;20433;-69
2022/02/04 12:02:30;;;;;;;14.20;12.80;;;;;;;10.34;66.18;99958.63;5060822;28;20562;-69
2022/02/04 12:05:04;;;;;;;13.43;12.03;;;;;;;10.86;64.43;99947.19;5060915;28;20407;-68
2022/02/04 12:07:50;;;;;;;13.70;12.27;;;;;;;10.09;66.15;99970.81;5060743;28;20397;-67
2022/02/04 12:10:20;;;;;;;13.70;12.30;;;;;;;10.20;66.95;99955.19;5060560;28;20855;-68
2022/02/04 12:13:09;;;;;;;14.07;12.50;;;;;;;10.14;67.05;99956.06;5060356;28;20438;-68
2022/02/04 12:15:49;;;;;;;18.00;14.63;;;;;;;10.15;67.37;99944.78;5060564;28;20416;-68
2022/02/04 12:18:17;;;;;;;14.00;12.57;;;;;;;10.07;66.95;99942.19;5043869;28;20420;-67
2022/02/04 12:20:50;;;;;;;13.50;12.20;;;;;;;9.86;67.91;99947.41;5061140;28;20742;-69
2022/02/04 12:23:27;;;;;;;14.00;11.43;;;;;;;10.02;67.62;99935.25;5060511;28;20535;-67
2022/02/04 12:26:00;;;;;;;13.30;12.07;;;;;;;10.15;67.05;99923.06;5060554;28;20465;-66
2022/02/04 12:28:44;;;;;;;14.37;10.70;;;;;;;9.95;67.32;99919.63;5060400;28;20654;-66
2022/02/04 12:31:14;;;;;;;13.50;11.93;;;;;;;9.94;67.86;99911.81;5060334;28;20459;-67
2022/02/04 12:33:53;;;;;;;11.13;10.03;;;;;;;9.74;67.65;99917.91;5059787;28;20424;-66
2022/02/04 12:36:24;;;;;;;12.30;11.00;;;;;;;9.72;68.37;99906.63;5077484;28;20734;-68
2022/02/04 12:38:54;;;;;;;14.47;11.53;;;;;;;10.10;68.12;99910.91;5080022;28;20438;-67
2022/02/04 12:41:27;;;;;;;11.57;10.37;;;;;;;9.67;68.84;99899.69;5080022;28;20392;-66
2022/02/04 12:43:55;;;;;;;12.33;11.03;;;;;;;9.92;68.21;99900.53;5079918;28;20435;-66
2022/02/04 12:46:21;;;;;;;14.00;12.60;;;;;;;9.63;68.67;99884.94;5079838;28;20427;-67
2022/02/04 12:49:05;;;;;;;14.07;10.37;;;;;;;9.93;68.56;99891.84;5062717;28;20453;-68
2022/02/04 12:54:48;;;;;;;11.10;10.03;;;;;;;10.02;68.08;99876.22;5079785;28;20419;-68
2022/02/04 13:03:02;;;;;;;10.93;9.90;;;;;;;9.66;68.06;99856.31;5047331;28;20506;-69
2022/02/04 13:08:20;;;;;;;11.57;10.23;;;;;;;9.82;68.31;99859.75;5059961;28;20418;-67
2022/02/04 13:10:59;;;;;;;11.30;10.10;;;;;;;10.15;67.45;99848.41;5059302;28;20419;-67
2022/02/04 13:13:25;;;;;;;13.10;10.07;;;;;;;9.89;68.17;99844.13;5065580;28;20427;-66
2022/02/04 13:15:51;;;;;;;18.60;9.13;;;;;;;10.27;67.31;99842.31;5061826;28;20823;-70
2022/02/04 13:18:17;;;;;;;10.60;8.60;;;;;;;9.71;68.93;99833.75;5079420;28;20556;-70
2022/02/04 13:20:49;;;;;;;12.03;9.80;;;;;;;10.18;67.10;99837.97;5079593;28;20876;-69
2022/02/04 13:23:17;;;;;;;10.57;8.70;;;;;;;9.85;68.54;99833.72;5078957;28;20212;-68
2022/02/04 13:25:45;;;;;;;10.30;8.50;;;;;;;10.28;67.60;99823.16;5061670;28;20464;-68
2022/02/04 13:28:34;;;;;;;9.73;7.83;;;;;;;9.78;68.11;99823.34;5079060;28;20475;-68
2022/02/04 13:31:04;;;;;;;12.63;7.90;;;;;;;9.97;68.42;99820.66;5061557;28;20691;-66
2022/02/04 13:33:42;;;;;;;8.67;7.70;;;;;;;9.71;68.62;99815.53;5058882;28;20416;-68
2022/02/04 13:36:34;;;;;;;10.90;7.00;;;;;;;9.63;68.58;99823.34;5058771;28;20426;-66
2022/02/04 13:39:09;;;;;;;8.10;7.20;;;;;;;9.58;68.64;99818.16;5058560;28;20412;-68
2022/02/04 13:46:55;;;;;;;8.33;7.30;;;;;;;9.66;69.14;99807.75;5058349;28;20790;-66
2022/02/04 13:51:57;;;;;;;6.07;5.57;;;;;;;9.94;68.08;99792.03;5058645;28;20443;-67
2022/02/04 13:57:41;;;;;;;5.93;5.40;;;;;;;12.00;61.70;99775.84;5058417;28;20753;-69
2022/02/04 14:02:53;;;;;;;6.50;5.80;;;;;;;10.45;66.18;99774.50;5058612;28;20814;-68
2022/02/04 14:05:35;;;;;;;6.83;6.23;;;;;;;10.25;66.83;99781.50;5058118;28;20409;-70
2022/02/04 14:08:09;;;;;;;6.90;5.90;;;;;;;9.82;68.40;99779.06;5058237;28;20390;-68
2022/02/04 14:10:41;;;;;;;8.37;5.60;;;;;;;10.41;66.77;99758.91;5058814;28;20417;-68
2022/02/04 14:13:08;;;;;;;5.70;5.20;;;;;;;9.88;67.82;99755.63;5058479;28;20740;-69
2022/02/04 14:15:36;;;;;;;6.83;5.50;;;;;;;9.95;67.96;99746.91;5058502;28;20678;-69
2022/02/04 14:18:07;;;;;;;6.57;5.70;;;;;;;9.98;68.41;99752.09;5058229;28;20689;-68
2022/02/04 14:20:33;;;;;;;7.03;5.70;;;;;;;10.05;67.99;99752.94;5058533;28;20430;-68
2022/02/04 14:22:59;;;;;;;6.00;5.40;;;;;;;10.05;67.87;99743.41;5040723;28;20424;-68
2022/02/04 14:25:25;;;;;;;7.20;6.27;;;;;;;9.94;68.31;99745.19;5058561;28;20177;-69
2022/02/04 14:27:54;;;;;;;10.83;6.20;;;;;;;10.03;68.34;99739.94;5058139;28;20412;-68
2022/02/04 14:30:25;;;;;;;7.30;6.60;;;;;;;10.18;67.26;99731.19;5057909;28;20181;-68
2022/02/04 14:33:05;;;;;;;6.87;6.27;;;;;;;9.67;68.32;99738.34;5057907;28;20750;-67
2022/02/04 14:49:25;;;;;;;7.53;6.83;;;;;;;10.42;65.21;99717.19;5077938;28;20686;-68
2022/02/04 14:52:14;;;;;;;7.37;6.60;;;;;;;9.63;67.07;99718.41;5078542;28;20459;-68
2022/02/04 15:02:42;;;;;;;7.57;6.80;;;;;;;9.93;66.93;99713.09;5082734;28;20419;-67
2022/02/04 15:05:11;;;;;;;9.87;7.80;;;;;;;9.65;67.66;99711.44;5084548;28;20418;-70
2022/02/04 15:07:39;;;;;;;8.77;7.97;;;;;;;9.79;67.69;99694.03;5081947;28;20386;-69
2022/02/04 15:10:06;;;;;;;9.40;7.90;;;;;;;9.71;67.45;99695.81;5081995;28;20839;-69
2022/02/04 15:12:31;;;;;;;9.93;7.60;;;;;;;9.96;67.31;99680.97;5081791;28;20520;-69
2022/02/04 15:14:56;;;;;;;9.63;8.23;;;;;;;9.48;68.32;99657.72;5082391;28;20714;-69
2022/02/04 15:17:22;;;;;;;8.93;8.03;;;;;;;9.60;68.20;99667.22;5064294;28;20181;-70
2022/02/04 15:19:50;;;;;;;8.43;7.63;;;;;;;9.63;68.17;99659.41;5081855;28;20188;-69
2022/02/04 15:22:21;;;;;;;8.47;7.70;;;;;;;9.97;67.47;99654.03;5081520;28;20177;-70
2022/02/04 15:24:52;;;;;;;8.30;7.50;;;;;;;9.70;68.04;99655.03;5081522;28;20408;-70
2022/02/04 15:27:17;;;;;;;7.47;6.77;;;;;;;9.55;68.69;99645.56;5064020;28;20397;-70
2022/02/04 15:29:45;;;;;;;6.70;6.10;;;;;;;9.30;68.85;99644.78;5081520;28;20858;-71
2022/02/04 15:32:11;;;;;;;6.97;6.37;;;;;;;9.24;69.95;99635.25;5081472;28;20211;-70
2022/02/04 15:34:36;;;;;;;8.40;7.60;;;;;;;9.30;69.82;99647.41;5077968;28;20555;-69
2022/02/04 15:37:02;;;;;;;7.90;7.10;;;;;;;9.71;68.97;99621.19;5061296;28;20618;-70
2022/02/04 15:39:29;;;;;;;7.43;6.77;;;;;;;9.71;68.59;99622.94;5061299;28;20216;-71
2022/02/04 15:41:58;;;;;;;8.43;7.63;;;;;;;9.83;68.56;99620.28;5061714;28;20211;-71
2022/02/04 15:55:07;;;;;;;7.40;6.70;;;;;;;9.68;67.95;99603.00;5060852;28;20189;-68
2022/02/04 15:57:42;;;;;;;7.10;6.30;;;;;;;9.63;68.30;99599.53;5060975;28;20466;-69
2022/02/04 16:05:41;;;;;;;6.73;5.70;;;;;;;9.57;69.44;99578.78;5040771;28;20432;-69
2022/02/04 16:08:09;;;;;;;7.03;6.33;;;;;;;9.56;70.28;99570.09;5040175;28;20413;-68
2022/02/04 16:10:51;;;;;;;7.90;7.10;;;;;;;9.17;71.07;99569.38;5040612;28;20413;-68
2022/02/04 16:13:36;;;;;;;7.70;6.97;;;;;;;9.69;70.16;99554.44;5045597;28;20475;-68
2022/02/04 16:16:27;;;;;;;8.03;7.33;;;;;;;9.28;71.22;99561.53;5060553;28;20452;-69
2022/02/04 16:19:01;;;;;;;8.07;7.30;;;;;;;9.35;70.78;99552.88;5060067;28;20745;-69
2022/02/04 16:21:45;;;;;;;9.13;8.00;;;;;;;9.39;70.81;99551.97;5060691;28;20668;-69
2022/02/04 16:26:49;;;;;;;11.40;10.10;;;;;;;9.58;70.66;99538.88;5060160;28;20679;-70
2022/02/04 16:29:15;;;;;;;9.23;8.33;;;;;;;9.47;70.20;99538.94;5060250;28;20455;-68
2022/02/04 16:31:41;;;;;;;10.33;9.40;;;;;;;9.14;71.21;99534.75;5042881;28;20699;-70
2022/02/04 16:34:09;;;;;;;9.93;8.70;;;;;;;9.14;72.54;99537.34;5060066;28;20493;-71
2022/02/04 16:36:39;;;;;;;11.67;8.93;;;;;;;9.43;71.37;99545.88;5079875;28;20229;-70
2022/02/04 16:39:07;;;;;;;10.00;9.10;;;;;;;9.33;70.77;99539.00;5080116;28;20447;-70
2022/02/04 16:41:45;;;;;;;10.57;9.60;;;;;;;9.09;71.83;99532.16;5079884;28;20479;-71
2022/02/04 16:44:10;;;;;;;9.67;8.67;;;;;;;9.12;71.88;99539.09;5079936;28;20411;-70
2022/02/04 16:46:36;;;;;;;10.37;9.40;;;;;;;9.32;71.57;99546.81;5080161;28;20459;-70
2022/02/04 16:49:01;;;;;;;9.63;8.83;;;;;;;9.26;71.62;99537.31;5080196;28;20230;-69
2022/02/04 16:51:26;;;;;;;10.70;9.60;;;;;;;9.33;71.52;99528.59;5062476;28;20578;-69
2022/02/04 16:53:52;;;;;;;9.83;8.93;;;;;;;9.01;72.17;99521.81;5079602;28;20211;-68
2022/02/04 16:56:17;;;;;;;10.20;9.10;;;;;;;9.19;72.43;99526.06;5080168;28;20230;-70
2022/02/04 16:58:42;;;;;;;9.63;8.63;;;;;;;9.21;72.26;99531.25;5079953;28;20271;-67
2022/02/04 17:01:07;;;;;;;9.43;8.30;;;;;;;8.96;73.36;99531.34;5079635;28;20271;-69
2022/02/04 17:03:33;;;;;;;9.87;8.97;;;;;;;9.13;73.01;99543.41;5075301;28;20501;-68
2022/02/04 17:06:02;;;;;;;8.50;7.70;;;;;;;9.04;73.76;99547.78;5060913;28;20170;-69
2022/02/04 17:08:36;;;;;;;8.43;7.70;;;;;;;8.79;74.59;99546.97;5060653;28;20543;-69
2022/02/04 17:11:03;;;;;;;9.00;7.37;;;;;;;8.61;76.27;99560.88;5059641;28;20461;-71
2022/02/04 17:13:29;;;;;;;11.03;8.00;;;;;;;8.64;76.73;99588.59;5066130;28;20419;-69
2022/02/04 17:15:55;;;;;;;6.63;6.00;;;;;;;8.34;76.33;99617.13;5080550;28;20389;-70